Time;durP1;ratioP1;P1;durP2;ratioP2;P2;SDS_P1;SDS_P2;PMS_P1;PMS_P2;Temp;Humidity;BMP_temperature;BMP_pressure;BME280_temperature;BME280_humidity;BME280_pressure;Samples;Min_cycle;Max_cycle;Signal;HPM_P1;HPM_P2
2023/01/06 00:01:18;;;;;;;37.28;8.02;;;10.00;99.90;;;;;;5033821;28;20317;-46
2023/01/06 00:03:52;;;;;;;39.05;9.57;;;10.00;99.90;;;;;;5033801;28;20055;-48
2023/01/06 00:06:18;;;;;;;;;;;10.10;99.90;;;;;;5033965;28;20668;-48
2023/01/06 00:08:43;;;;;;;28.77;8.00;;;10.20;99.90;;;;;;5035185;28;19997;-47
2023/01/06 00:11:12;;;;;;;29.08;7.88;;;10.20;99.90;;;;;;5034510;28;20132;-48
2023/01/06 00:13:38;;;;;;;23.60;7.25;;;10.10;99.90;;;;;;5033442;28;20049;-47
2023/01/06 00:16:16;;;;;;;31.52;9.27;;;10.00;99.90;;;;;;5032779;28;20459;-48
2023/01/06 00:18:42;;;;;;;30.00;6.90;;;10.00;99.90;;;;;;5000311;28;20052;-47
2023/01/06 00:21:09;;;;;;;31.55;9.30;;;10.20;99.90;;;;;;5015168;28;20044;-49
2023/01/06 00:23:35;;;;;;;26.08;7.65;;;10.20;99.90;;;;;;5033179;28;20071;-47
2023/01/06 00:26:02;;;;;;;25.80;6.93;;;10.00;99.90;;;;;;5033546;28;20049;-47
2023/01/06 00:28:27;;;;;;;25.15;8.02;;;10.20;99.90;;;;;;5015277;28;20053;-47
2023/01/06 00:30:53;;;;;;;21.08;7.43;;;10.10;99.90;;;;;;5033309;28;20072;-47
2023/01/06 00:33:19;;;;;;;21.60;8.20;;;10.20;99.90;;;;;;5032869;28;20045;-47
2023/01/06 00:35:45;;;;;;;17.15;6.80;;;10.10;99.90;;;;;;5033182;28;20510;-50
2023/01/06 00:38:11;;;;;;;26.30;7.57;;;10.00;99.90;;;;;;5034306;28;20326;-47
2023/01/06 00:40:37;;;;;;;21.83;6.75;;;10.10;99.90;;;;;;5033198;28;20895;-47
2023/01/06 00:43:03;;;;;;;16.45;5.85;;;9.90;99.90;;;;;;5032752;28;20095;-47
2023/01/06 00:45:29;;;;;;;20.20;6.07;;;10.00;99.90;;;;;;5032630;28;20434;-47
2023/01/06 00:47:55;;;;;;;15.32;5.30;;;10.00;99.90;;;;;;5032710;28;20048;-47
2023/01/06 00:50:20;;;;;;;15.60;5.20;;;9.90;99.90;;;;;;5032670;28;20064;-49
2023/01/06 00:52:49;;;;;;;15.57;5.97;;;9.80;99.90;;;;;;5033610;28;20045;-50
2023/01/06 00:55:15;;;;;;;16.60;5.00;;;9.90;99.90;;;;;;5033211;28;20040;-47
2023/01/06 00:57:41;;;;;;;13.98;4.70;;;9.80;99.90;;;;;;5016986;28;20128;-47
2023/01/06 01:00:08;;;;;;;14.70;5.15;;;9.80;99.90;;;;;;5033236;28;20075;-48
2023/01/06 01:02:34;;;;;;;17.52;6.35;;;9.80;99.90;;;;;;5033038;28;20112;-46
2023/01/06 01:05:00;;;;;;;14.40;5.57;;;9.80;99.90;;;;;;5032091;28;20071;-49
2023/01/06 01:07:26;;;;;;;16.00;5.55;;;9.90;99.90;;;;;;5033566;28;20127;-47
2023/01/06 01:09:51;;;;;;;13.20;5.50;;;9.80;99.90;;;;;;5032866;28;20051;-47
2023/01/06 01:12:17;;;;;;;15.30;6.18;;;9.80;99.90;;;;;;5015331;28;20044;-48
2023/01/06 01:14:48;;;;;;;15.07;5.93;;;9.80;99.90;;;;;;5032186;28;20053;-47
2023/01/06 01:17:18;;;;;;;17.70;6.57;;;9.70;99.90;;;;;;5033218;28;20127;-47
2023/01/06 01:19:44;;;;;;;18.13;6.30;;;9.70;99.90;;;;;;5033712;28;20052;-48
2023/01/06 01:22:10;;;;;;;13.82;6.32;;;9.70;99.90;;;;;;5033177;28;20134;-46
2023/01/06 01:24:36;;;;;;;18.08;7.10;;;9.80;99.90;;;;;;5031430;28;20163;-47
2023/01/06 01:27:02;;;;;;;16.27;6.88;;;9.90;99.90;;;;;;5032242;28;20501;-47
2023/01/06 01:29:28;;;;;;;17.45;7.70;;;9.70;99.90;;;;;;5031562;28;20157;-51
2023/01/06 01:31:57;;;;;;;19.05;7.50;;;9.80;99.90;;;;;;5032038;28;20388;-46
2023/01/06 01:34:23;;;;;;;18.65;7.95;;;9.80;99.90;;;;;;5013312;28;20399;-46
2023/01/06 01:36:51;;;;;;;13.77;7.55;;;9.90;99.90;;;;;;5032606;28;20048;-48
2023/01/06 01:39:20;;;;;;;17.95;7.75;;;9.80;99.90;;;;;;5032505;28;20041;-50
2023/01/06 01:41:47;;;;;;;14.60;7.40;;;9.90;99.90;;;;;;5032472;28;20047;-50
2023/01/06 01:44:46;;;;;;;16.33;7.07;;;9.70;99.90;;;;;;5032095;28;20131;-47
2023/01/06 01:47:16;;;;;;;15.07;7.50;;;9.80;99.90;;;;;;5032889;28;20144;-47
2023/01/06 01:49:45;;;;;;;12.93;6.55;;;9.80;99.90;;;;;;5033337;28;20049;-48
2023/01/06 01:52:12;;;;;;;14.75;6.47;;;9.70;99.90;;;;;;5032279;28;20658;-47
2023/01/06 01:54:39;;;;;;;12.20;6.25;;;9.80;99.90;;;;;;5031062;28;20091;-49
2023/01/06 01:57:13;;;;;;;19.33;7.95;;;9.70;99.90;;;;;;5013401;28;20407;-47
2023/01/06 01:59:40;;;;;;;14.85;6.68;;;9.80;99.90;;;;;;5032413;28;20067;-49
2023/01/06 02:02:07;;;;;;;16.98;6.82;;;9.70;99.90;;;;;;5031448;28;20564;-47
2023/01/06 02:04:36;;;;;;;14.73;5.22;;;9.70;99.90;;;;;;5031141;28;20041;-47
2023/01/06 02:07:03;;;;;;;17.55;5.95;;;9.70;99.90;;;;;;5031735;28;20155;-51
2023/01/06 02:09:53;;;;;;;18.08;5.70;;;9.80;99.90;;;;;;5031520;28;20153;-48
2023/01/06 02:12:19;;;;;;;14.70;5.25;;;9.70;99.90;;;;;;5013937;28;20041;-47
2023/01/06 02:14:44;;;;;;;14.85;5.13;;;9.70;99.90;;;;;;5030911;28;20047;-48
2023/01/06 02:17:29;;;;;;;14.93;5.07;;;9.70;99.90;;;;;;5031519;28;20059;-46
2023/01/06 02:20:15;;;;;;;14.15;4.35;;;9.70;99.90;;;;;;5030259;28;20052;-48
2023/01/06 02:23:00;;;;;;;13.73;5.03;;;9.70;99.90;;;;;;5031621;28;20487;-48
2023/01/06 02:26:00;;;;;;;12.13;5.95;;;9.70;99.90;;;;;;5031426;28;20049;-46
2023/01/06 02:28:46;;;;;;;10.55;4.40;;;9.80;99.90;;;;;;5029994;28;20072;-48
2023/01/06 02:31:14;;;;;;;15.43;4.80;;;9.60;99.90;;;;;;5030635;28;20148;-48
2023/01/06 02:34:24;;;;;;;13.38;4.28;;;9.70;99.90;;;;;;5031024;28;20047;-47
2023/01/06 02:37:20;;;;;;;11.18;3.55;;;9.70;99.90;;;;;;4986931;28;20054;-47
2023/01/06 02:40:21;;;;;;;14.93;4.25;;;9.60;99.90;;;;;;4991297;28;20140;-50
2023/01/06 02:43:08;;;;;;;10.70;4.00;;;9.60;99.90;;;;;;4953935;28;20058;-49
2023/01/06 02:45:55;;;;;;;10.15;5.38;;;9.70;99.90;;;;;;4953918;28;20098;-48
2023/01/06 02:48:40;;;;;;;14.20;5.28;;;9.70;99.90;;;;;;4953509;28;20067;-48
2023/01/06 02:51:22;;;;;;;10.43;6.45;;;9.70;99.90;;;;;;4953724;28;20497;-48
2023/01/06 02:54:24;;;;;;;10.13;6.18;;;9.60;99.90;;;;;;4936456;28;20074;-49
2023/01/06 02:56:59;;;;;;;10.77;6.82;;;9.60;99.90;;;;;;4953888;28;20586;-46
2023/01/06 02:59:29;;;;;;;13.00;7.05;;;9.80;99.90;;;;;;4954275;28;20324;-47
2023/01/06 03:01:56;;;;;;;8.88;6.80;;;9.70;99.90;;;;;;4950991;28;20070;-47
2023/01/06 03:04:30;;;;;;;12.05;6.35;;;9.80;99.90;;;;;;4952731;28;20129;-47
2023/01/06 03:06:57;;;;;;;10.27;6.05;;;9.60;99.90;;;;;;4953377;28;20417;-48
2023/01/06 03:09:28;;;;;;;11.10;6.90;;;9.70;99.90;;;;;;4954956;28;20604;-48
2023/01/06 03:11:54;;;;;;;8.73;7.18;;;9.80;99.90;;;;;;4955253;28;20073;-48
2023/01/06 03:14:29;;;;;;;12.93;7.35;;;9.70;99.90;;;;;;4978092;28;20065;-47
2023/01/06 03:16:54;;;;;;;14.88;8.45;;;9.80;99.90;;;;;;4977222;28;20060;-48
2023/01/06 03:19:21;;;;;;;11.63;8.25;;;9.80;99.90;;;;;;5012751;28;20799;-49
2023/01/06 03:21:48;;;;;;;10.75;7.93;;;9.80;99.90;;;;;;5036563;28;20496;-47
2023/01/06 03:24:15;;;;;;;14.18;9.15;;;9.70;99.90;;;;;;5036074;28;20383;-49
2023/01/06 03:26:43;;;;;;;11.20;8.63;;;9.80;99.90;;;;;;5019589;28;20129;-48
2023/01/06 03:29:12;;;;;;;12.57;9.52;;;9.90;99.90;;;;;;5037070;28;20545;-46
2023/01/06 03:31:38;;;;;;;10.90;8.90;;;9.80;99.90;;;;;;5036693;28;20384;-47
2023/01/06 03:34:16;;;;;;;15.43;9.82;;;9.90;99.90;;;;;;5035031;28;20053;-49
2023/01/06 03:37:07;;;;;;;13.85;9.65;;;9.80;99.90;;;;;;5019450;28;20063;-46
2023/01/06 03:39:41;;;;;;;13.02;10.35;;;9.80;99.90;;;;;;5027226;28;20063;-50
2023/01/06 03:45:49;;;;;;;12.30;9.88;;;9.90;99.90;;;;;;5035900;28;20728;-46
2023/01/06 03:48:30;;;;;;;11.52;9.60;;;9.90;99.90;;;;;;5018211;28;20045;-49
2023/01/06 03:51:03;;;;;;;10.65;9.48;;;9.90;99.90;;;;;;5017907;28;20067;-46
2023/01/06 03:53:37;;;;;;;13.48;8.80;;;9.80;99.90;;;;;;5034476;28;20052;-46
2023/01/06 03:56:19;;;;;;;11.65;8.02;;;9.90;99.90;;;;;;5018564;28;20148;-47
2023/01/06 03:58:50;;;;;;;13.52;8.50;;;9.90;99.90;;;;;;5035778;28;20041;-47
2023/01/06 04:01:16;;;;;;;8.93;7.20;;;9.80;99.90;;;;;;5018387;28;20078;-50
2023/01/06 04:03:46;;;;;;;9.73;7.15;;;9.90;99.90;;;;;;5035282;28;20568;-46
2023/01/06 04:06:12;;;;;;;10.77;7.57;;;9.80;99.90;;;;;;5036342;28;20060;-50
2023/01/06 04:08:38;;;;;;;10.82;7.45;;;9.80;99.90;;;;;;5019021;28;20525;-46
2023/01/06 04:11:04;;;;;;;8.63;7.38;;;9.90;99.90;;;;;;5036737;28;20053;-47
2023/01/06 04:13:29;;;;;;;11.63;7.22;;;9.80;99.90;;;;;;5022697;28;20075;-47
2023/01/06 04:15:55;;;;;;;8.88;6.25;;;9.80;99.90;;;;;;5036242;28;20041;-46
2023/01/06 04:18:21;;;;;;;8.13;5.85;;;9.90;99.90;;;;;;5016871;28;20499;-47
2023/01/06 04:20:46;;;;;;;7.38;6.45;;;9.80;99.90;;;;;;5018289;28;20156;-49
2023/01/06 04:23:12;;;;;;;8.20;5.18;;;9.80;99.90;;;;;;5035071;28;20422;-49
2023/01/06 04:25:37;;;;;;;8.48;6.15;;;9.80;99.90;;;;;;5036441;28;20049;-47
2023/01/06 04:28:03;;;;;;;8.48;5.90;;;9.80;99.90;;;;;;5035873;28;20053;-48
2023/01/06 04:30:29;;;;;;;7.10;5.43;;;9.80;99.90;;;;;;5035691;28;20044;-46
2023/01/06 04:32:55;;;;;;;13.70;5.10;;;9.80;99.90;;;;;;5034666;28;20071;-46
2023/01/06 04:35:20;;;;;;;6.55;4.85;;;9.80;99.90;;;;;;5034214;28;20680;-48
2023/01/06 04:37:46;;;;;;;6.75;4.43;;;9.80;99.90;;;;;;5035510;28;20088;-51
2023/01/06 04:40:12;;;;;;;7.60;4.30;;;9.80;99.90;;;;;;5035866;28;20088;-46
2023/01/06 04:45:22;;;;;;;8.65;4.22;;;9.80;99.90;;;;;;5034472;28;20164;-47
2023/01/06 04:47:48;;;;;;;8.60;4.65;;;9.80;99.90;;;;;;5035351;28;20576;-48
2023/01/06 04:50:14;;;;;;;7.63;3.80;;;9.80;99.90;;;;;;5000444;28;20114;-51
2023/01/06 04:52:39;;;;;;;7.20;3.72;;;9.80;99.90;;;;;;5035147;28;20063;-47
2023/01/06 04:55:05;;;;;;;8.95;4.50;;;9.90;99.90;;;;;;5034028;28;20044;-48
2023/01/06 04:57:31;;;;;;;9.73;3.60;;;9.80;99.90;;;;;;5035025;28;20049;-47
2023/01/06 04:59:56;;;;;;;6.30;3.30;;;9.90;99.90;;;;;;5034266;28;20514;-47
2023/01/06 05:02:22;;;;;;;5.50;3.22;;;9.90;99.90;;;;;;5031875;28;20041;-48
2023/01/06 05:04:48;;;;;;;4.88;3.55;;;9.90;99.90;;;;;;5014176;28;20060;-48
2023/01/06 05:07:13;;;;;;;5.85;4.00;;;9.90;99.90;;;;;;5034004;28;20446;-51
2023/01/06 05:09:39;;;;;;;7.70;3.90;;;9.90;99.90;;;;;;5034843;28;20629;-48
2023/01/06 05:12:05;;;;;;;5.57;3.40;;;9.90;99.90;;;;;;5034902;28;20127;-47
2023/01/06 05:14:30;;;;;;;8.85;3.83;;;9.80;99.90;;;;;;5033358;28;20529;-47
2023/01/06 05:16:56;;;;;;;6.88;3.58;;;9.80;99.90;;;;;;4999782;28;20052;-47
2023/01/06 05:19:22;;;;;;;4.68;3.05;;;9.80;99.90;;;;;;5034699;28;20099;-47
2023/01/06 05:21:47;;;;;;;11.27;3.80;;;9.80;99.90;;;;;;5034697;28;20048;-50
2023/01/06 05:24:13;;;;;;;7.05;3.83;;;9.80;99.90;;;;;;5033188;28;20052;-49
2023/01/06 05:26:39;;;;;;;10.00;3.50;;;9.80;99.90;;;;;;5016244;28;20052;-48
2023/01/06 05:29:05;;;;;;;9.82;3.85;;;9.70;99.90;;;;;;5037383;28;20102;-48
2023/01/06 05:31:31;;;;;;;8.70;4.85;;;9.80;99.90;;;;;;5043661;28;20139;-47
2023/01/06 05:33:57;;;;;;;5.90;3.80;;;9.80;99.90;;;;;;5033331;28;20054;-47
2023/01/06 05:36:22;;;;;;;9.50;4.47;;;9.70;99.90;;;;;;5034077;28;20083;-48
2023/01/06 05:38:52;;;;;;;10.18;4.40;;;9.80;99.90;;;;;;5034370;28;20080;-47
2023/01/06 05:41:19;;;;;;;8.10;4.47;;;9.70;99.90;;;;;;5033675;28;20060;-48
2023/01/06 05:43:44;;;;;;;9.02;5.43;;;9.60;99.90;;;;;;5032579;28;20107;-46
2023/01/06 05:46:11;;;;;;;7.38;5.78;;;9.70;99.90;;;;;;5033770;28;20048;-46
2023/01/06 05:48:37;;;;;;;10.02;5.85;;;9.70;99.90;;;;;;5034034;28;20485;-47
2023/01/06 05:51:07;;;;;;;8.27;6.95;;;9.60;99.90;;;;;;5033491;28;20460;-46
2023/01/06 05:53:35;;;;;;;8.63;6.25;;;9.60;99.90;;;;;;5032888;28;20420;-46
2023/01/06 05:56:02;;;;;;;8.65;7.22;;;9.70;99.90;;;;;;5033537;28;20387;-50
2023/01/06 05:58:29;;;;;;;10.52;7.85;;;9.50;99.90;;;;;;5033934;28;20132;-47
2023/01/06 06:00:54;;;;;;;11.60;7.75;;;9.50;99.90;;;;;;5033601;28;20049;-48
2023/01/06 06:03:20;;;;;;;10.25;8.43;;;9.60;99.90;;;;;;5032886;28;20190;-51
2023/01/06 06:05:46;;;;;;;13.40;8.40;;;9.40;99.90;;;;;;5015917;28;20060;-50
2023/01/06 06:08:11;;;;;;;11.90;8.57;;;9.50;99.90;;;;;;5034828;28;20693;-46
2023/01/06 06:10:37;;;;;;;14.68;9.00;;;9.40;99.90;;;;;;5034016;28;20475;-49
2023/01/06 06:13:03;;;;;;;13.77;8.68;;;9.50;99.90;;;;;;5032551;28;20088;-46
2023/01/06 06:15:28;;;;;;;11.30;9.27;;;9.40;99.90;;;;;;5033013;28;20045;-48
2023/01/06 06:17:54;;;;;;;10.50;9.07;;;9.50;99.90;;;;;;5033229;28;20041;-47
2023/01/06 06:20:20;;;;;;;11.95;8.00;;;9.50;99.90;;;;;;5033530;28;20044;-46
2023/01/06 06:22:45;;;;;;;9.18;7.70;;;9.60;99.90;;;;;;5014725;28;20049;-46
2023/01/06 06:25:11;;;;;;;9.18;8.27;;;9.60;99.90;;;;;;5033634;28;20068;-46
2023/01/06 06:27:37;;;;;;;9.57;8.32;;;9.40;99.90;;;;;;5015705;28;20122;-49
2023/01/06 06:30:05;;;;;;;9.50;8.18;;;9.60;99.90;;;;;;5033180;28;20098;-45
2023/01/06 06:32:30;;;;;;;10.38;7.30;;;9.50;99.90;;;;;;5014309;28;20056;-49
2023/01/06 06:34:56;;;;;;;8.07;7.25;;;9.60;99.90;;;;;;5033011;28;20060;-49
2023/01/06 06:37:22;;;;;;;7.47;6.60;;;9.50;99.90;;;;;;5032992;28;20120;-51
2023/01/06 06:39:48;;;;;;;9.18;6.97;;;9.50;99.90;;;;;;5033496;28;20266;-48
2023/01/06 06:42:13;;;;;;;8.63;6.22;;;9.60;99.90;;;;;;5033922;28;20153;-49
2023/01/06 06:44:39;;;;;;;6.40;5.80;;;9.70;99.90;;;;;;5032106;28;20068;-50
2023/01/06 06:47:04;;;;;;;7.22;6.53;;;9.70;99.90;;;;;;5014981;28;20052;-49
2023/01/06 06:49:30;;;;;;;8.57;6.30;;;9.60;99.90;;;;;;5033144;28;20049;-48
2023/01/06 06:51:56;;;;;;;6.97;6.38;;;9.50;99.90;;;;;;5032149;28;20045;-51
2023/01/06 06:54:21;;;;;;;8.15;6.53;;;9.50;99.90;;;;;;5032054;28;20060;-50
2023/01/06 06:56:47;;;;;;;8.25;7.05;;;9.40;99.90;;;;;;5033374;28;20136;-50
2023/01/06 06:59:13;;;;;;;10.07;7.43;;;9.40;99.90;;;;;;5033127;28;20582;-48
2023/01/06 07:01:38;;;;;;;9.35;7.57;;;9.50;99.90;;;;;;5032970;28;20064;-48
2023/01/06 07:04:04;;;;;;;10.18;7.45;;;9.60;99.90;;;;;;5032478;28;20057;-48
2023/01/06 07:06:30;;;;;;;9.05;7.35;;;9.60;99.90;;;;;;5032774;28;20747;-51
2023/01/06 07:08:56;;;;;;;10.45;8.80;;;9.60;99.90;;;;;;5015174;28;20051;-51
2023/01/06 07:11:22;;;;;;;11.20;8.68;;;9.50;99.90;;;;;;5032877;28;20160;-49
2023/01/06 07:13:48;;;;;;;11.40;9.15;;;9.50;99.90;;;;;;5032316;28;20473;-49
2023/01/06 07:16:14;;;;;;;9.45;8.18;;;9.30;99.90;;;;;;5035790;28;20048;-50
2023/01/06 07:18:40;;;;;;;10.30;7.50;;;9.40;99.90;;;;;;5034660;28;20048;-48
2023/01/06 07:21:06;;;;;;;7.57;5.68;;;9.50;99.90;;;;;;5033657;28;20476;-50
2023/01/06 07:23:32;;;;;;;10.48;6.70;;;9.50;99.90;;;;;;5032973;28;20628;-48
2023/01/06 07:26:00;;;;;;;10.77;6.13;;;9.50;99.90;;;;;;5033910;28;20096;-50
2023/01/06 07:28:30;;;;;;;11.88;6.40;;;9.30;99.90;;;;;;5035379;28;20045;-51
2023/01/06 07:30:55;;;;;;;10.80;5.72;;;9.40;99.90;;;;;;5035622;28;20051;-49
2023/01/06 07:33:21;;;;;;;9.00;5.13;;;9.30;99.90;;;;;;5033870;28;20045;-49
2023/01/06 07:35:52;;;;;;;9.18;2.97;;;9.30;99.90;;;;;;5016878;28;20076;-47
2023/01/06 07:38:18;;;;;;;6.10;2.50;;;9.30;99.90;;;;;;5017055;28;20136;-47
2023/01/06 07:40:44;;;;;;;8.43;2.30;;;9.20;99.90;;;;;;5035291;28;20053;-51
2023/01/06 07:43:10;;;;;;;10.10;3.85;;;8.90;99.90;;;;;;5034616;28;20044;-50
2023/01/06 07:45:36;;;;;;;7.03;1.95;;;8.90;99.90;;;;;;5017069;28;20155;-47
2023/01/06 07:48:03;;;;;;;9.13;2.25;;;8.80;99.90;;;;;;5034704;28;20103;-49
2023/01/06 07:50:29;;;;;;;11.38;2.25;;;8.60;99.90;;;;;;5034443;28;20045;-48
2023/01/06 07:52:59;;;;;;;9.13;2.55;;;8.60;99.90;;;;;;5033641;28;20061;-50
2023/01/06 07:55:25;;;;;;;8.13;2.17;;;8.40;99.90;;;;;;5034373;28;20427;-50
2023/01/06 07:57:51;;;;;;;9.32;2.70;;;8.30;99.90;;;;;;5034698;28;20052;-48
2023/01/06 08:00:17;;;;;;;11.18;3.13;;;8.30;99.90;;;;;;5034334;28;20475;-50
2023/01/06 08:02:43;;;;;;;9.88;3.10;;;8.10;99.90;;;;;;5033701;28;20049;-47
2023/01/06 08:05:09;;;;;;;8.52;2.17;;;8.10;99.90;;;;;;5034917;28;20395;-48
2023/01/06 08:07:35;;;;;;;9.27;1.98;;;8.10;99.90;;;;;;5034660;28;20121;-51
2023/01/06 08:10:00;;;;;;;7.70;1.90;;;8.00;99.90;;;;;;5030233;28;20399;-50
2023/01/06 08:12:26;;;;;;;11.38;1.70;;;7.80;99.90;;;;;;5006551;28;20544;-51
2023/01/06 08:14:51;;;;;;;11.65;1.90;;;7.90;99.90;;;;;;5016468;28;21160;-47
2023/01/06 08:17:17;;;;;;;16.17;2.55;;;7.70;99.90;;;;;;5016446;28;20063;-50
2023/01/06 08:19:43;;;;;;;9.18;2.78;;;7.70;99.90;;;;;;5020740;28;20041;-47
2023/01/06 08:22:08;;;;;;;12.38;2.20;;;7.60;99.90;;;;;;5020012;28;20495;-49
2023/01/06 08:24:34;;;;;;;9.85;1.95;;;7.60;99.90;;;;;;4999071;28;20126;-49
2023/01/06 08:27:00;;;;;;;19.15;2.72;;;7.70;99.90;;;;;;5021249;28;20111;-48
2023/01/06 08:29:26;;;;;;;13.68;2.65;;;7.60;99.90;;;;;;5021267;28;20045;-51
2023/01/06 08:31:51;;;;;;;17.08;2.75;;;7.50;99.90;;;;;;5035312;28;20056;-49
2023/01/06 08:34:17;;;;;;;17.80;3.38;;;7.60;99.90;;;;;;5032977;28;20485;-50
2023/01/06 08:36:44;;;;;;;18.23;2.95;;;7.60;99.90;;;;;;5035236;28;20278;-50
2023/01/06 08:39:11;;;;;;;20.38;3.78;;;7.50;99.90;;;;;;5035434;28;20083;-48
2023/01/06 08:41:37;;;;;;;24.13;4.10;;;7.50;99.90;;;;;;5017122;28;20152;-49
2023/01/06 08:44:04;;;;;;;18.30;2.75;;;7.60;99.90;;;;;;5033942;28;20130;-50
2023/01/06 08:46:30;;;;;;;13.23;3.15;;;7.50;99.90;;;;;;5016956;28;20122;-47
2023/01/06 08:48:56;;;;;;;16.13;2.67;;;7.50;99.90;;;;;;5034883;28;20511;-48
2023/01/06 08:51:23;;;;;;;21.42;3.22;;;7.50;99.90;;;;;;5034658;28;20079;-48
2023/01/06 08:53:50;;;;;;;13.18;2.47;;;7.50;99.90;;;;;;5015351;28;20501;-49
2023/01/06 08:56:19;;;;;;;19.80;3.22;;;7.50;99.90;;;;;;5035636;28;20075;-50
2023/01/06 08:58:50;;;;;;;20.63;3.10;;;7.50;99.90;;;;;;5035307;28;20056;-47
2023/01/06 09:01:19;;;;;;;17.05;3.45;;;7.60;99.90;;;;;;5035611;28;20381;-48
2023/01/06 09:03:45;;;;;;;17.38;2.85;;;7.60;99.90;;;;;;5033810;28;20087;-55
2023/01/06 09:06:11;;;;;;;11.70;1.90;;;7.70;99.90;;;;;;5034703;28;20171;-47
2023/01/06 09:08:36;;;;;;;15.77;3.03;;;7.50;99.90;;;;;;5034788;28;20327;-47
2023/01/06 09:11:07;;;;;;;12.18;2.20;;;7.60;99.90;;;;;;5016257;28;20063;-48
2023/01/06 09:13:34;;;;;;;15.63;1.90;;;7.70;99.90;;;;;;5033498;28;20155;-47
2023/01/06 09:16:01;;;;;;;16.65;2.33;;;7.60;99.90;;;;;;5016674;28;20517;-47
2023/01/06 09:18:26;;;;;;;16.95;2.78;;;7.60;99.90;;;;;;5034549;28;20408;-49
2023/01/06 09:20:52;;;;;;;13.93;2.15;;;7.60;99.90;;;;;;5014931;28;20427;-49
2023/01/06 09:23:19;;;;;;;14.55;2.05;;;7.70;99.90;;;;;;5033007;28;20041;-49
2023/01/06 09:25:45;;;;;;;13.95;2.45;;;7.70;99.90;;;;;;5034509;28;20466;-47
2023/01/06 09:28:11;;;;;;;11.38;1.90;;;7.80;99.90;;;;;;5033936;28;20079;-48
2023/01/06 09:30:36;;;;;;;20.23;2.60;;;7.70;99.90;;;;;;5034039;28;20463;-47
2023/01/06 09:33:02;;;;;;;14.05;2.95;;;7.80;99.90;;;;;;5015514;28;20404;-48
2023/01/06 09:35:28;;;;;;;9.82;1.73;;;7.80;99.90;;;;;;5034132;28;20041;-49
2023/01/06 09:37:54;;;;;;;15.38;2.40;;;7.80;99.90;;;;;;5016360;28;20064;-50
2023/01/06 09:40:27;;;;;;;13.82;2.03;;;7.80;99.90;;;;;;5015987;28;20060;-47
2023/01/06 09:43:23;;;;;;;13.25;2.00;;;7.80;99.90;;;;;;5030574;28;20048;-48
2023/01/06 09:45:54;;;;;;;8.82;2.03;;;8.00;99.90;;;;;;5021947;28;20496;-47
2023/01/06 09:48:26;;;;;;;8.82;1.80;;;8.10;99.90;;;;;;5033287;28;20475;-47
2023/01/06 09:50:56;;;;;;;11.85;2.20;;;8.20;99.90;;;;;;5015527;28;20056;-47
2023/01/06 09:53:30;;;;;;;15.32;2.42;;;8.10;99.90;;;;;;5032115;28;20618;-47
2023/01/06 09:56:00;;;;;;;12.77;1.98;;;8.20;99.90;;;;;;5015614;28;20104;-46
2023/01/06 09:58:34;;;;;;;13.75;1.85;;;8.20;99.90;;;;;;5034042;28;20040;-48
2023/01/06 10:01:05;;;;;;;14.13;2.00;;;8.10;99.90;;;;;;5033784;28;20068;-49
2023/01/06 10:03:31;;;;;;;11.95;2.22;;;8.20;99.90;;;;;;5032757;28;20357;-50
2023/01/06 10:06:35;;;;;;;14.25;2.22;;;8.30;99.90;;;;;;5034263;28;20053;-47
2023/01/06 10:09:31;;;;;;;15.73;3.22;;;8.20;99.90;;;;;;5033485;28;20052;-47
2023/01/06 10:12:16;;;;;;;16.30;2.20;;;8.20;99.90;;;;;;5031735;28;20060;-47
2023/01/06 10:14:49;;;;;;;16.98;3.22;;;8.30;99.90;;;;;;5034007;28;20131;-48
2023/01/06 10:17:32;;;;;;;10.95;1.70;;;8.30;99.90;;;;;;5016026;28;20175;-48
2023/01/06 10:20:22;;;;;;;17.42;2.20;;;8.30;99.90;;;;;;5015691;28;20037;-47
2023/01/06 10:23:12;;;;;;;15.43;2.35;;;8.30;99.90;;;;;;5014139;28;20041;-47
2023/01/06 10:25:45;;;;;;;12.98;3.40;;;8.40;99.90;;;;;;5032913;28;20507;-48
2023/01/06 10:28:29;;;;;;;15.35;2.80;;;8.40;99.90;;;;;;5033953;28;20058;-47
2023/01/06 10:30:59;;;;;;;21.20;3.10;;;8.40;99.90;;;;;;5033815;28;20041;-51
2023/01/06 10:33:29;;;;;;;22.08;2.60;;;8.40;99.90;;;;;;5014902;28;20102;-49
2023/01/06 10:35:55;;;;;;;11.95;2.20;;;8.40;99.90;;;;;;5033431;28;20122;-46
2023/01/06 10:38:26;;;;;;;15.40;2.20;;;8.40;99.90;;;;;;5032323;28;20053;-47
2023/01/06 10:40:54;;;;;;;13.38;2.20;;;8.50;99.90;;;;;;5033781;28;20711;-48
2023/01/06 10:43:22;;;;;;;12.65;1.85;;;8.50;99.90;;;;;;5032538;28;20079;-48
2023/01/06 10:45:49;;;;;;;13.05;2.33;;;8.40;99.90;;;;;;5016516;28;20052;-47
2023/01/06 10:48:21;;;;;;;15.07;2.50;;;8.50;99.90;;;;;;5034130;28;20136;-46
2023/01/06 10:50:47;;;;;;;12.53;2.40;;;8.50;99.90;;;;;;5034462;28;20422;-50
2023/01/06 10:53:14;;;;;;;18.17;3.05;;;8.50;99.90;;;;;;5033941;28;20098;-47
2023/01/06 10:55:56;;;;;;;12.20;2.35;;;8.50;99.90;;;;;;5034625;28;20033;-50
2023/01/06 10:58:36;;;;;;;9.18;2.25;;;8.50;99.90;;;;;;5033292;28;20087;-50
2023/01/06 11:01:21;;;;;;;10.27;2.17;;;8.50;99.90;;;;;;5036009;28;20049;-46
2023/01/06 11:04:06;;;;;;;14.32;2.22;;;8.60;99.90;;;;;;5036073;28;20081;-48
2023/01/06 11:06:33;;;;;;;15.93;2.80;;;8.50;99.90;;;;;;5037177;28;20072;-46
2023/01/06 11:09:07;;;;;;;11.75;2.05;;;8.60;99.90;;;;;;5037936;28;20124;-47
2023/01/06 11:11:33;;;;;;;12.82;2.47;;;8.60;99.90;;;;;;5037771;28;20048;-46
2023/01/06 11:14:03;;;;;;;11.40;2.80;;;8.70;99.90;;;;;;5036422;28;20044;-47
2023/01/06 11:16:31;;;;;;;13.15;2.05;;;8.70;99.90;;;;;;5019620;28;20095;-48
2023/01/06 11:19:01;;;;;;;10.57;2.13;;;8.70;99.90;;;;;;5037392;28;20040;-47
2023/01/06 11:21:43;;;;;;;15.82;2.20;;;8.70;99.90;;;;;;5037467;28;20079;-49
2023/01/06 11:24:21;;;;;;;9.35;2.00;;;8.70;99.90;;;;;;5036291;28;20056;-46
2023/01/06 11:27:14;;;;;;;12.43;3.15;;;8.70;99.90;;;;;;5037728;28;20044;-49
2023/01/06 11:29:40;;;;;;;12.15;2.28;;;8.70;99.90;;;;;;5037124;28;20045;-47
2023/01/06 11:32:17;;;;;;;11.88;2.35;;;8.70;99.90;;;;;;5036050;28;20365;-48
2023/01/06 11:34:53;;;;;;;17.88;3.40;;;8.70;99.90;;;;;;5038586;28;20049;-48
2023/01/06 11:37:34;;;;;;;8.90;2.70;;;8.80;99.90;;;;;;5037304;28;20130;-48
2023/01/06 11:40:18;;;;;;;13.63;2.78;;;8.80;99.90;;;;;;5037011;28;20045;-47
2023/01/06 11:42:48;;;;;;;16.30;2.45;;;8.80;99.90;;;;;;5036503;28;20503;-49
2023/01/06 11:45:40;;;;;;;14.65;2.90;;;8.80;99.90;;;;;;5037209;28;20052;-51
2023/01/06 11:48:19;;;;;;;14.05;2.88;;;8.80;99.90;;;;;;5036098;28;20436;-47
2023/01/06 11:50:59;;;;;;;15.13;2.38;;;8.80;99.90;;;;;;5036745;28;20149;-48
2023/01/06 11:53:25;;;;;;;11.20;2.50;;;8.70;99.90;;;;;;5035669;28;20304;-48
2023/01/06 11:55:55;;;;;;;15.57;2.92;;;8.80;99.90;;;;;;5037496;28;20354;-48
2023/01/06 11:58:38;;;;;;;11.50;1.92;;;8.70;99.90;;;;;;5036358;28;20470;-47
2023/01/06 12:01:29;;;;;;;10.38;2.53;;;8.70;99.90;;;;;;5036429;28;20669;-46
2023/01/06 12:04:09;;;;;;;11.90;2.10;;;8.70;99.90;;;;;;5028192;28;20045;-47
2023/01/06 12:06:39;;;;;;;10.63;1.95;;;8.70;99.90;;;;;;5035917;28;20094;-49
2023/01/06 12:09:08;;;;;;;12.40;2.22;;;8.70;99.90;;;;;;5018442;28;20045;-47
2023/01/06 12:11:45;;;;;;;15.30;3.08;;;8.60;99.90;;;;;;5028641;28;20121;-47
2023/01/06 12:14:18;;;;;;;11.75;2.05;;;8.70;99.90;;;;;;5016826;28;20855;-47
2023/01/06 12:16:49;;;;;;;9.48;2.45;;;8.70;99.90;;;;;;5024251;28;20045;-47
2023/01/06 12:19:21;;;;;;;10.95;2.28;;;8.70;99.90;;;;;;5019917;28;20064;-48
2023/01/06 12:21:46;;;;;;;11.88;2.13;;;8.60;99.90;;;;;;5021144;28;20051;-47
2023/01/06 12:24:18;;;;;;;14.43;2.22;;;8.60;99.90;;;;;;5026180;28;20041;-48
2023/01/06 12:26:44;;;;;;;12.50;2.58;;;8.60;99.90;;;;;;5017919;28;20392;-49
2023/01/06 12:29:17;;;;;;;9.10;2.95;;;8.60;99.90;;;;;;5019242;28;20040;-47
2023/01/06 12:31:46;;;;;;;14.38;2.50;;;8.60;99.90;;;;;;5028822;28;20182;-47
2023/01/06 12:34:21;;;;;;;17.00;3.38;;;8.60;99.90;;;;;;5025764;28;20044;-49
2023/01/06 12:36:52;;;;;;;11.13;2.10;;;8.60;99.90;;;;;;5036042;28;20396;-46
2023/01/06 12:39:23;;;;;;;11.90;2.00;;;8.70;99.90;;;;;;5027562;28;20052;-51
2023/01/06 12:41:49;;;;;;;15.05;3.38;;;8.70;99.90;;;;;;5029567;28;20049;-49
2023/01/06 12:44:45;;;;;;;17.98;3.13;;;8.70;99.90;;;;;;5034749;28;20449;-50
2023/01/06 12:47:24;;;;;;;11.52;2.00;;;8.80;99.90;;;;;;5034148;28;20045;-48
2023/01/06 12:49:55;;;;;;;12.85;2.55;;;8.70;99.90;;;;;;5035665;28;20499;-47
2023/01/06 12:52:25;;;;;;;9.88;2.03;;;8.80;99.90;;;;;;5021409;28;20432;-47
2023/01/06 12:54:55;;;;;;;11.95;2.20;;;8.70;99.90;;;;;;5035244;28;20053;-47
2023/01/06 12:57:50;;;;;;;13.60;3.25;;;8.70;99.90;;;;;;5017873;28;20068;-46
2023/01/06 13:00:34;;;;;;;14.32;2.90;;;8.70;99.90;;;;;;5035801;28;20127;-48
2023/01/06 13:03:24;;;;;;;9.80;2.30;;;8.60;99.90;;;;;;5034207;28;20076;-50
2023/01/06 13:06:05;;;;;;;14.25;3.22;;;8.60;99.90;;;;;;5034960;28;20064;-47
2023/01/06 13:08:47;;;;;;;11.32;2.42;;;8.60;99.90;;;;;;5022357;28;20056;-48
2023/01/06 13:11:21;;;;;;;11.00;2.50;;;8.60;99.90;;;;;;5035215;28;20172;-50